首页
METAR-TAF:

METAR-TAF

机场 :

貝爾格勒尼古拉·特斯拉機場

贝尔格莱德, 塞尔维亚

纬度: 44-49N, 经度: 020-17E, 海拔: 96米

当前天气观测

该预报发布于14分钟前的08:30 UTC
风速3节,风向东南,在东转东北之间变化
温度 28°C
湿度 55%
气压 1012 hPa
能见度10公里或以上
1500米以下无云,无积雨云

METAR: LYBE 140830Z 13003KT 070V180 CAVOK 28/18 Q1012 NOSIG

时间: 10:44 (08:44 UTC)

预报

该预报发布于3小时和44分钟前的05:00 UTC
预报有效从14日的 06点(UTC)到 15日的 06点(UTC)
风速6节,风向东南
能见度10公里或以上
散云层高于4000英尺
短暂存在
从 14日的 09点(UTC)到 14日的 12点(UTC)
风速16节,风向东南
短暂存在
从 14日的 12点(UTC)到 14日的 22点(UTC)
风速15节,风向多变,有时为25节阵风
能見度: 5000
散云层高于3300英尺, 积雨云.
散云层高于4000英尺
雷暴, 雨
成为
从 14日的 22点(UTC)到 14日的 24点(UTC)
风速10节,风向北转西北

TAF: LYBE 140500Z 1406/1506 13006KT 9999 SCT040 TX33/1413Z TN20/1503Z TEMPO 1409/1412 14016KT TEMPO 1412/1422 VRB15G25KT 5000 TSRA SCT033CB SCT040 BECMG 1422/1424 34010KT

超过4000个机场的气象观测和天气预报(METAR&TAF报告)。

可查询的气象台以黄色和红色小点在地图上表示。

将鼠标移到小点上方,可查看气象台名称。

然后点击查看天气观测和预报。

如需切换地图:点击带黑十字的绿色按钮放大地图;点击带横线的绿色按钮缩小地图;或者点击绿色箭头查看邻近地区的地图。


METAR-TAF: